sensor_id;sensor_type;location;lat;lon;timestamp;temperature;humidity
8436;DHT22;4255;48.730;9.156;2024-01-30T00:02:21;7.00;1.00
8436;DHT22;4255;48.730;9.156;2024-01-30T00:04:46;7.00;99.90
8436;DHT22;4255;48.730;9.156;2024-01-30T00:07:12;7.10;1.00
8436;DHT22;4255;48.730;9.156;2024-01-30T00:09:38;7.10;99.90
8436;DHT22;4255;48.730;9.156;2024-01-30T00:12:05;7.10;1.00
8436;DHT22;4255;48.730;9.156;2024-01-30T00:14:31;7.20;1.00
8436;DHT22;4255;48.730;9.156;2024-01-30T00:16:57;7.20;1.00
8436;DHT22;4255;48.730;9.156;2024-01-30T00:19:22;7.20;99.90
8436;DHT22;4255;48.730;9.156;2024-01-30T00:21:48;7.00;1.00
8436;DHT22;4255;48.730;9.156;2024-01-30T00:24:13;7.00;99.90
8436;DHT22;4255;48.730;9.156;2024-01-30T00:26:39;6.80;1.00
8436;DHT22;4255;48.730;9.156;2024-01-30T00:29:04;6.90;1.00
8436;DHT22;4255;48.730;9.156;2024-01-30T00:31:30;6.80;1.00
8436;DHT22;4255;48.730;9.156;2024-01-30T00:33:56;6.80;1.00
8436;DHT22;4255;48.730;9.156;2024-01-30T00:36:21;6.80;1.00
8436;DHT22;4255;48.730;9.156;2024-01-30T00:38:47;6.80;1.00
8436;DHT22;4255;48.730;9.156;2024-01-30T00:41:13;6.90;1.00
8436;DHT22;4255;48.730;9.156;2024-01-30T00:43:38;7.00;1.00
8436;DHT22;4255;48.730;9.156;2024-01-30T00:46:04;7.00;99.90
8436;DHT22;4255;48.730;9.156;2024-01-30T00:48:30;7.00;1.00
8436;DHT22;4255;48.730;9.156;2024-01-30T00:50:55;7.10;1.00
8436;DHT22;4255;48.730;9.156;2024-01-30T00:53:21;7.10;1.00
8436;DHT22;4255;48.730;9.156;2024-01-30T00:55:47;7.10;1.00
8436;DHT22;4255;48.730;9.156;2024-01-30T00:58:12;7.10;1.00
8436;DHT22;4255;48.730;9.156;2024-01-30T01:00:39;7.10;99.90
8436;DHT22;4255;48.730;9.156;2024-01-30T01:03:04;7.10;99.90
8436;DHT22;4255;48.730;9.156;2024-01-30T01:05:30;7.20;99.90
8436;DHT22;4255;48.730;9.156;2024-01-30T01:07:55;7.20;1.00
8436;DHT22;4255;48.730;9.156;2024-01-30T01:10:21;7.20;1.00
8436;DHT22;4255;48.730;9.156;2024-01-30T01:12:48;7.30;99.90
8436;DHT22;4255;48.730;9.156;2024-01-30T01:15:14;7.40;99.40
8436;DHT22;4255;48.730;9.156;2024-01-30T01:17:39;7.40;99.90
8436;DHT22;4255;48.730;9.156;2024-01-30T01:20:06;7.30;99.90
8436;DHT22;4255;48.730;9.156;2024-01-30T01:22:32;7.20;1.00
8436;DHT22;4255;48.730;9.156;2024-01-30T01:25:01;7.10;1.00
8436;DHT22;4255;48.730;9.156;2024-01-30T01:27:27;7.00;1.00
8436;DHT22;4255;48.730;9.156;2024-01-30T01:29:53;7.00;97.50
8436;DHT22;4255;48.730;9.156;2024-01-30T01:32:18;6.90;99.90
8436;DHT22;4255;48.730;9.156;2024-01-30T01:34:44;6.90;99.90
8436;DHT22;4255;48.730;9.156;2024-01-30T01:37:10;6.80;99.90
8436;DHT22;4255;48.730;9.156;2024-01-30T01:39:36;6.80;1.00
8436;DHT22;4255;48.730;9.156;2024-01-30T01:42:01;6.80;99.90
8436;DHT22;4255;48.730;9.156;2024-01-30T01:44:27;6.60;1.00
8436;DHT22;4255;48.730;9.156;2024-01-30T01:46:54;6.60;99.90
8436;DHT22;4255;48.730;9.156;2024-01-30T01:49:20;6.60;99.90
8436;DHT22;4255;48.730;9.156;2024-01-30T01:51:47;6.60;99.90
8436;DHT22;4255;48.730;9.156;2024-01-30T01:54:14;6.60;99.90
8436;DHT22;4255;48.730;9.156;2024-01-30T01:56:42;6.70;99.90
8436;DHT22;4255;48.730;9.156;2024-01-30T01:59:08;6.50;99.90
8436;DHT22;4255;48.730;9.156;2024-01-30T02:01:35;6.50;1.00
8436;DHT22;4255;48.730;9.156;2024-01-30T02:04:01;6.50;99.90
8436;DHT22;4255;48.730;9.156;2024-01-30T02:06:27;6.30;1.00
8436;DHT22;4255;48.730;9.156;2024-01-30T02:08:56;6.20;34.60
8436;DHT22;4255;48.730;9.156;2024-01-30T02:11:22;6.20;99.90
8436;DHT22;4255;48.730;9.156;2024-01-30T02:13:48;6.20;99.90
8436;DHT22;4255;48.730;9.156;2024-01-30T02:16:14;6.00;99.90
8436;DHT22;4255;48.730;9.156;2024-01-30T02:18:40;5.80;99.90
8436;DHT22;4255;48.730;9.156;2024-01-30T02:21:11;5.70;1.00
8436;DHT22;4255;48.730;9.156;2024-01-30T02:23:38;5.70;1.00
8436;DHT22;4255;48.730;9.156;2024-01-30T02:26:04;5.70;1.00
8436;DHT22;4255;48.730;9.156;2024-01-30T02:28:30;5.80;99.90
8436;DHT22;4255;48.730;9.156;2024-01-30T02:30:56;5.80;99.90
8436;DHT22;4255;48.730;9.156;2024-01-30T02:33:21;5.80;99.90
8436;DHT22;4255;48.730;9.156;2024-01-30T02:35:48;5.80;1.00
8436;DHT22;4255;48.730;9.156;2024-01-30T02:38:13;5.80;99.90
8436;DHT22;4255;48.730;9.156;2024-01-30T02:40:39;5.80;99.90
8436;DHT22;4255;48.730;9.156;2024-01-30T02:43:04;5.80;99.90
8436;DHT22;4255;48.730;9.156;2024-01-30T02:45:30;5.70;1.00
8436;DHT22;4255;48.730;9.156;2024-01-30T02:47:56;5.60;1.00
8436;DHT22;4255;48.730;9.156;2024-01-30T02:50:21;5.50;1.00
8436;DHT22;4255;48.730;9.156;2024-01-30T02:52:47;5.50;1.00
8436;DHT22;4255;48.730;9.156;2024-01-30T02:55:12;5.40;1.00
8436;DHT22;4255;48.730;9.156;2024-01-30T02:57:38;5.30;1.00
8436;DHT22;4255;48.730;9.156;2024-01-30T03:00:05;5.30;1.00
8436;DHT22;4255;48.730;9.156;2024-01-30T03:02:32;5.20;1.00
8436;DHT22;4255;48.730;9.156;2024-01-30T03:04:59;5.20;1.00
8436;DHT22;4255;48.730;9.156;2024-01-30T03:07:25;5.20;1.00
8436;DHT22;4255;48.730;9.156;2024-01-30T03:09:50;5.20;1.00
8436;DHT22;4255;48.730;9.156;2024-01-30T03:12:16;5.30;1.00
8436;DHT22;4255;48.730;9.156;2024-01-30T03:14:42;5.20;1.00
8436;DHT22;4255;48.730;9.156;2024-01-30T03:17:07;5.30;1.00
8436;DHT22;4255;48.730;9.156;2024-01-30T03:19:33;5.20;1.00
8436;DHT22;4255;48.730;9.156;2024-01-30T03:21:59;5.20;1.00
8436;DHT22;4255;48.730;9.156;2024-01-30T03:24:24;5.20;1.00
8436;DHT22;4255;48.730;9.156;2024-01-30T03:26:50;5.20;1.00
8436;DHT22;4255;48.730;9.156;2024-01-30T03:29:15;5.20;1.00
8436;DHT22;4255;48.730;9.156;2024-01-30T03:31:41;5.20;1.00
8436;DHT22;4255;48.730;9.156;2024-01-30T03:34:07;5.20;1.00
8436;DHT22;4255;48.730;9.156;2024-01-30T03:36:32;5.10;1.00
8436;DHT22;4255;48.730;9.156;2024-01-30T03:39:00;5.00;1.00
8436;DHT22;4255;48.730;9.156;2024-01-30T03:41:25;4.90;1.00
8436;DHT22;4255;48.730;9.156;2024-01-30T03:43:51;4.90;1.00
8436;DHT22;4255;48.730;9.156;2024-01-30T03:46:17;4.80;1.00
8436;DHT22;4255;48.730;9.156;2024-01-30T03:48:42;4.80;1.00
8436;DHT22;4255;48.730;9.156;2024-01-30T03:51:08;4.80;1.00
8436;DHT22;4255;48.730;9.156;2024-01-30T03:53:34;4.80;1.00
8436;DHT22;4255;48.730;9.156;2024-01-30T03:55:59;4.80;1.00
8436;DHT22;4255;48.730;9.156;2024-01-30T03:58:25;4.70;1.00
8436;DHT22;4255;48.730;9.156;2024-01-30T04:00:51;4.70;1.00
8436;DHT22;4255;48.730;9.156;2024-01-30T04:03:17;4.70;1.00
8436;DHT22;4255;48.730;9.156;2024-01-30T04:05:43;4.60;1.00
8436;DHT22;4255;48.730;9.156;2024-01-30T04:08:09;4.60;1.00
8436;DHT22;4255;48.730;9.156;2024-01-30T04:10:34;4.70;1.00
8436;DHT22;4255;48.730;9.156;2024-01-30T04:13:00;4.70;1.00
8436;DHT22;4255;48.730;9.156;2024-01-30T04:15:26;4.70;1.00
8436;DHT22;4255;48.730;9.156;2024-01-30T04:17:52;4.60;1.00
8436;DHT22;4255;48.730;9.156;2024-01-30T04:20:17;4.40;1.00
8436;DHT22;4255;48.730;9.156;2024-01-30T04:22:44;4.40;1.00
8436;DHT22;4255;48.730;9.156;2024-01-30T04:25:10;4.40;1.00
8436;DHT22;4255;48.730;9.156;2024-01-30T04:27:36;4.40;1.00
8436;DHT22;4255;48.730;9.156;2024-01-30T04:30:01;4.40;1.00
8436;DHT22;4255;48.730;9.156;2024-01-30T04:32:27;4.40;1.00
8436;DHT22;4255;48.730;9.156;2024-01-30T04:34:52;4.20;1.00
8436;DHT22;4255;48.730;9.156;2024-01-30T04:37:18;4.20;1.00
8436;DHT22;4255;48.730;9.156;2024-01-30T04:39:43;4.20;1.00
8436;DHT22;4255;48.730;9.156;2024-01-30T04:42:09;4.00;1.00
8436;DHT22;4255;48.730;9.156;2024-01-30T04:44:35;4.00;1.00
8436;DHT22;4255;48.730;9.156;2024-01-30T04:47:00;4.10;1.00
8436;DHT22;4255;48.730;9.156;2024-01-30T04:49:27;4.10;1.00
8436;DHT22;4255;48.730;9.156;2024-01-30T04:51:53;4.10;1.00
8436;DHT22;4255;48.730;9.156;2024-01-30T04:54:18;4.10;1.00
8436;DHT22;4255;48.730;9.156;2024-01-30T04:56:44;4.20;1.00
8436;DHT22;4255;48.730;9.156;2024-01-30T04:59:09;4.20;1.00
8436;DHT22;4255;48.730;9.156;2024-01-30T05:01:35;4.10;1.00
8436;DHT22;4255;48.730;9.156;2024-01-30T05:04:00;4.10;1.00
8436;DHT22;4255;48.730;9.156;2024-01-30T05:06:29;4.00;1.00
8436;DHT22;4255;48.730;9.156;2024-01-30T05:08:55;4.10;1.00
8436;DHT22;4255;48.730;9.156;2024-01-30T05:11:20;4.10;1.00
8436;DHT22;4255;48.730;9.156;2024-01-30T05:13:46;4.20;1.00
8436;DHT22;4255;48.730;9.156;2024-01-30T05:16:13;4.20;1.00
8436;DHT22;4255;48.730;9.156;2024-01-30T05:18:38;4.10;1.00
8436;DHT22;4255;48.730;9.156;2024-01-30T05:21:05;4.00;1.00
8436;DHT22;4255;48.730;9.156;2024-01-30T05:23:31;3.90;1.00
8436;DHT22;4255;48.730;9.156;2024-01-30T05:25:57;4.00;3.90
8436;DHT22;4255;48.730;9.156;2024-01-30T05:28:22;3.90;1.00
8436;DHT22;4255;48.730;9.156;2024-01-30T05:30:48;3.70;9.90
8436;DHT22;4255;48.730;9.156;2024-01-30T05:33:13;3.70;26.90
8436;DHT22;4255;48.730;9.156;2024-01-30T05:35:39;3.50;60.00
8436;DHT22;4255;48.730;9.156;2024-01-30T05:38:05;3.50;86.10
8436;DHT22;4255;48.730;9.156;2024-01-30T05:40:30;3.40;88.10
8436;DHT22;4255;48.730;9.156;2024-01-30T05:42:56;3.40;95.20
8436;DHT22;4255;48.730;9.156;2024-01-30T05:45:26;3.30;99.90
8436;DHT22;4255;48.730;9.156;2024-01-30T05:47:52;3.20;99.90
8436;DHT22;4255;48.730;9.156;2024-01-30T05:50:18;3.20;99.90
8436;DHT22;4255;48.730;9.156;2024-01-30T05:52:44;3.10;99.90
8436;DHT22;4255;48.730;9.156;2024-01-30T05:55:10;3.30;99.90
8436;DHT22;4255;48.730;9.156;2024-01-30T05:57:37;3.40;99.90
8436;DHT22;4255;48.730;9.156;2024-01-30T06:00:04;3.50;99.90
8436;DHT22;4255;48.730;9.156;2024-01-30T06:02:29;3.60;99.90
8436;DHT22;4255;48.730;9.156;2024-01-30T06:04:55;3.60;92.60
8436;DHT22;4255;48.730;9.156;2024-01-30T06:07:21;3.60;81.30
8436;DHT22;4255;48.730;9.156;2024-01-30T06:09:47;3.60;95.30
8436;DHT22;4255;48.730;9.156;2024-01-30T06:12:13;3.60;93.00
8436;DHT22;4255;48.730;9.156;2024-01-30T06:14:38;3.80;99.90
8436;DHT22;4255;48.730;9.156;2024-01-30T06:17:04;3.80;99.90
8436;DHT22;4255;48.730;9.156;2024-01-30T06:19:30;3.60;99.90
8436;DHT22;4255;48.730;9.156;2024-01-30T06:21:58;3.60;99.90
8436;DHT22;4255;48.730;9.156;2024-01-30T06:24:24;3.60;99.90
8436;DHT22;4255;48.730;9.156;2024-01-30T06:26:50;3.70;99.90
8436;DHT22;4255;48.730;9.156;2024-01-30T06:29:15;3.70;99.90
8436;DHT22;4255;48.730;9.156;2024-01-30T06:31:42;3.70;99.90
8436;DHT22;4255;48.730;9.156;2024-01-30T06:34:08;3.60;99.90
8436;DHT22;4255;48.730;9.156;2024-01-30T06:36:34;3.90;99.90
8436;DHT22;4255;48.730;9.156;2024-01-30T06:39:01;3.80;99.90
8436;DHT22;4255;48.730;9.156;2024-01-30T06:41:27;3.80;99.90
8436;DHT22;4255;48.730;9.156;2024-01-30T06:43:52;3.80;99.90
8436;DHT22;4255;48.730;9.156;2024-01-30T06:46:18;3.80;99.90
8436;DHT22;4255;48.730;9.156;2024-01-30T06:48:43;3.80;99.90
8436;DHT22;4255;48.730;9.156;2024-01-30T06:51:10;3.80;99.90
8436;DHT22;4255;48.730;9.156;2024-01-30T06:53:36;3.90;99.90
8436;DHT22;4255;48.730;9.156;2024-01-30T06:56:02;3.80;95.90
8436;DHT22;4255;48.730;9.156;2024-01-30T06:58:27;3.80;99.90
8436;DHT22;4255;48.730;9.156;2024-01-30T07:00:53;3.90;99.90
8436;DHT22;4255;48.730;9.156;2024-01-30T07:03:19;3.90;70.90
8436;DHT22;4255;48.730;9.156;2024-01-30T07:05:44;3.80;71.00
8436;DHT22;4255;48.730;9.156;2024-01-30T07:08:10;3.80;99.90
8436;DHT22;4255;48.730;9.156;2024-01-30T07:10:36;3.80;99.90
8436;DHT22;4255;48.730;9.156;2024-01-30T07:13:01;3.80;99.90
8436;DHT22;4255;48.730;9.156;2024-01-30T07:15:27;3.90;99.90
8436;DHT22;4255;48.730;9.156;2024-01-30T07:17:53;4.00;99.90
8436;DHT22;4255;48.730;9.156;2024-01-30T07:20:18;4.10;99.90
8436;DHT22;4255;48.730;9.156;2024-01-30T07:22:45;4.20;96.00
8436;DHT22;4255;48.730;9.156;2024-01-30T07:25:11;4.40;98.30
8436;DHT22;4255;48.730;9.156;2024-01-30T07:27:37;4.60;91.00
8436;DHT22;4255;48.730;9.156;2024-01-30T07:30:02;4.80;51.60
8436;DHT22;4255;48.730;9.156;2024-01-30T07:32:28;5.00;39.20
8436;DHT22;4255;48.730;9.156;2024-01-30T07:34:53;5.00;2.60
8436;DHT22;4255;48.730;9.156;2024-01-30T07:37:19;5.00;1.00
8436;DHT22;4255;48.730;9.156;2024-01-30T07:39:45;5.10;1.00
8436;DHT22;4255;48.730;9.156;2024-01-30T07:42:10;5.10;1.00
8436;DHT22;4255;48.730;9.156;2024-01-30T07:44:36;5.00;1.00
8436;DHT22;4255;48.730;9.156;2024-01-30T07:47:01;4.90;1.00
8436;DHT22;4255;48.730;9.156;2024-01-30T07:49:28;4.80;1.00
8436;DHT22;4255;48.730;9.156;2024-01-30T07:51:54;4.60;1.00
8436;DHT22;4255;48.730;9.156;2024-01-30T07:54:19;4.50;12.50
8436;DHT22;4255;48.730;9.156;2024-01-30T07:56:45;4.60;19.20
8436;DHT22;4255;48.730;9.156;2024-01-30T07:59:11;4.70;9.60
8436;DHT22;4255;48.730;9.156;2024-01-30T08:01:37;4.80;1.00
8436;DHT22;4255;48.730;9.156;2024-01-30T08:04:03;4.90;1.00
8436;DHT22;4255;48.730;9.156;2024-01-30T08:06:28;4.90;1.00
8436;DHT22;4255;48.730;9.156;2024-01-30T08:08:54;4.80;1.00
8436;DHT22;4255;48.730;9.156;2024-01-30T08:11:20;4.90;1.00
8436;DHT22;4255;48.730;9.156;2024-01-30T08:13:51;4.90;1.00
8436;DHT22;4255;48.730;9.156;2024-01-30T08:16:17;4.90;1.00
8436;DHT22;4255;48.730;9.156;2024-01-30T08:18:42;4.90;1.70
8436;DHT22;4255;48.730;9.156;2024-01-30T08:21:08;5.00;1.00
8436;DHT22;4255;48.730;9.156;2024-01-30T08:23:34;5.00;1.00
8436;DHT22;4255;48.730;9.156;2024-01-30T08:26:00;5.10;1.00
8436;DHT22;4255;48.730;9.156;2024-01-30T08:28:25;5.20;1.00
8436;DHT22;4255;48.730;9.156;2024-01-30T08:30:52;5.30;1.00
8436;DHT22;4255;48.730;9.156;2024-01-30T08:33:17;5.40;1.00
8436;DHT22;4255;48.730;9.156;2024-01-30T08:35:43;5.70;1.00
8436;DHT22;4255;48.730;9.156;2024-01-30T08:38:08;5.90;1.00
8436;DHT22;4255;48.730;9.156;2024-01-30T08:40:34;6.20;1.00
8436;DHT22;4255;48.730;9.156;2024-01-30T08:43:00;6.30;1.00
8436;DHT22;4255;48.730;9.156;2024-01-30T08:45:25;6.60;1.00
8436;DHT22;4255;48.730;9.156;2024-01-30T08:47:51;6.70;1.00
8436;DHT22;4255;48.730;9.156;2024-01-30T08:50:17;6.90;1.00
8436;DHT22;4255;48.730;9.156;2024-01-30T08:52:42;7.10;1.00
8436;DHT22;4255;48.730;9.156;2024-01-30T08:55:08;7.30;1.00
8436;DHT22;4255;48.730;9.156;2024-01-30T08:57:34;7.60;1.00
8436;DHT22;4255;48.730;9.156;2024-01-30T09:00:00;7.70;1.00
8436;DHT22;4255;48.730;9.156;2024-01-30T09:02:27;7.80;99.90
8436;DHT22;4255;48.730;9.156;2024-01-30T09:04:53;7.90;99.90
8436;DHT22;4255;48.730;9.156;2024-01-30T09:07:18;8.10;99.90
8436;DHT22;4255;48.730;9.156;2024-01-30T09:09:44;8.30;99.90
8436;DHT22;4255;48.730;9.156;2024-01-30T09:12:10;8.50;1.00
8436;DHT22;4255;48.730;9.156;2024-01-30T09:14:39;8.60;1.00
8436;DHT22;4255;48.730;9.156;2024-01-30T09:17:05;8.80;99.90
8436;DHT22;4255;48.730;9.156;2024-01-30T09:19:31;8.90;1.00
8436;DHT22;4255;48.730;9.156;2024-01-30T09:21:56;9.10;99.90
8436;DHT22;4255;48.730;9.156;2024-01-30T09:24:22;9.00;1.00
8436;DHT22;4255;48.730;9.156;2024-01-30T09:26:48;9.10;99.90
8436;DHT22;4255;48.730;9.156;2024-01-30T09:29:13;9.10;1.00
8436;DHT22;4255;48.730;9.156;2024-01-30T09:31:39;9.10;99.90
8436;DHT22;4255;48.730;9.156;2024-01-30T09:34:04;9.10;99.90
8436;DHT22;4255;48.730;9.156;2024-01-30T09:36:31;9.20;33.20
8436;DHT22;4255;48.730;9.156;2024-01-30T09:38:57;9.30;99.90
8436;DHT22;4255;48.730;9.156;2024-01-30T09:41:24;9.40;1.00
8436;DHT22;4255;48.730;9.156;2024-01-30T09:43:51;9.60;99.90
8436;DHT22;4255;48.730;9.156;2024-01-30T09:46:17;9.70;1.00
8436;DHT22;4255;48.730;9.156;2024-01-30T09:48:48;9.90;1.00
8436;DHT22;4255;48.730;9.156;2024-01-30T09:51:17;10.10;1.00
8436;DHT22;4255;48.730;9.156;2024-01-30T09:53:45;10.30;99.90
8436;DHT22;4255;48.730;9.156;2024-01-30T09:56:12;10.30;1.00
8436;DHT22;4255;48.730;9.156;2024-01-30T09:58:38;10.60;1.00
8436;DHT22;4255;48.730;9.156;2024-01-30T10:01:05;10.50;99.90
8436;DHT22;4255;48.730;9.156;2024-01-30T10:03:31;10.80;1.00
8436;DHT22;4255;48.730;9.156;2024-01-30T10:05:56;10.80;1.00
8436;DHT22;4255;48.730;9.156;2024-01-30T10:08:22;11.20;1.00
8436;DHT22;4255;48.730;9.156;2024-01-30T10:10:49;11.40;1.00
8436;DHT22;4255;48.730;9.156;2024-01-30T10:13:18;11.70;1.00
8436;DHT22;4255;48.730;9.156;2024-01-30T10:15:44;11.80;99.90
8436;DHT22;4255;48.730;9.156;2024-01-30T10:18:10;11.90;99.90
8436;DHT22;4255;48.730;9.156;2024-01-30T10:20:36;12.00;59.70
8436;DHT22;4255;48.730;9.156;2024-01-30T10:23:02;12.00;1.00
8436;DHT22;4255;48.730;9.156;2024-01-30T10:25:30;12.10;1.00
8436;DHT22;4255;48.730;9.156;2024-01-30T10:27:56;12.20;1.00
8436;DHT22;4255;48.730;9.156;2024-01-30T10:30:22;12.30;1.00
8436;DHT22;4255;48.730;9.156;2024-01-30T10:32:48;12.40;1.00
8436;DHT22;4255;48.730;9.156;2024-01-30T10:35:14;12.60;1.00
8436;DHT22;4255;48.730;9.156;2024-01-30T10:37:43;12.80;1.00
8436;DHT22;4255;48.730;9.156;2024-01-30T10:40:12;13.00;1.00
8436;DHT22;4255;48.730;9.156;2024-01-30T10:42:42;13.20;1.00
8436;DHT22;4255;48.730;9.156;2024-01-30T10:45:12;13.30;1.00
8436;DHT22;4255;48.730;9.156;2024-01-30T10:47:40;13.30;99.90
8436;DHT22;4255;48.730;9.156;2024-01-30T10:50:07;13.40;99.90
8436;DHT22;4255;48.730;9.156;2024-01-30T10:52:34;13.50;99.90
8436;DHT22;4255;48.730;9.156;2024-01-30T10:55:00;13.80;99.90
8436;DHT22;4255;48.730;9.156;2024-01-30T10:57:27;13.50;99.90
8436;DHT22;4255;48.730;9.156;2024-01-30T10:59:56;13.40;99.90
8436;DHT22;4255;48.730;9.156;2024-01-30T11:02:23;13.50;99.90
8436;DHT22;4255;48.730;9.156;2024-01-30T11:04:49;13.30;99.90
8436;DHT22;4255;48.730;9.156;2024-01-30T11:07:19;13.40;99.90
8436;DHT22;4255;48.730;9.156;2024-01-30T11:09:52;13.30;99.90
8436;DHT22;4255;48.730;9.156;2024-01-30T11:12:22;13.70;99.90
8436;DHT22;4255;48.730;9.156;2024-01-30T11:14:49;13.80;99.90
8436;DHT22;4255;48.730;9.156;2024-01-30T11:17:15;13.90;91.70
8436;DHT22;4255;48.730;9.156;2024-01-30T11:19:41;14.00;99.90
8436;DHT22;4255;48.730;9.156;2024-01-30T11:22:08;14.20;90.00
8436;DHT22;4255;48.730;9.156;2024-01-30T11:24:40;14.40;99.90
8436;DHT22;4255;48.730;9.156;2024-01-30T11:27:09;14.50;44.50
8436;DHT22;4255;48.730;9.156;2024-01-30T11:29:38;14.50;8.30
8436;DHT22;4255;48.730;9.156;2024-01-30T11:32:05;14.40;1.00
8436;DHT22;4255;48.730;9.156;2024-01-30T11:34:32;14.50;1.00
8436;DHT22;4255;48.730;9.156;2024-01-30T11:37:03;14.70;1.00
8436;DHT22;4255;48.730;9.156;2024-01-30T11:39:32;14.90;1.00
8436;DHT22;4255;48.730;9.156;2024-01-30T11:41:58;14.70;1.00
8436;DHT22;4255;48.730;9.156;2024-01-30T11:44:24;14.70;1.00
8436;DHT22;4255;48.730;9.156;2024-01-30T11:46:51;14.50;1.00
8436;DHT22;4255;48.730;9.156;2024-01-30T11:49:17;14.60;1.00
8436;DHT22;4255;48.730;9.156;2024-01-30T11:51:45;14.60;1.00
8436;DHT22;4255;48.730;9.156;2024-01-30T11:54:11;14.80;1.00
8436;DHT22;4255;48.730;9.156;2024-01-30T11:56:37;14.80;1.00
8436;DHT22;4255;48.730;9.156;2024-01-30T11:59:04;14.90;1.00
8436;DHT22;4255;48.730;9.156;2024-01-30T12:01:30;14.90;1.00
8436;DHT22;4255;48.730;9.156;2024-01-30T12:03:58;14.80;1.00
8436;DHT22;4255;48.730;9.156;2024-01-30T12:06:24;14.90;1.00
8436;DHT22;4255;48.730;9.156;2024-01-30T12:11:22;14.90;1.00
8436;DHT22;4255;48.730;9.156;2024-01-30T12:13:48;14.90;1.00
8436;DHT22;4255;48.730;9.156;2024-01-30T12:16:13;15.00;1.00
8436;DHT22;4255;48.730;9.156;2024-01-30T12:18:39;15.00;1.00
8436;DHT22;4255;48.730;9.156;2024-01-30T12:21:05;15.10;1.00
8436;DHT22;4255;48.730;9.156;2024-01-30T12:23:30;15.10;1.00
8436;DHT22;4255;48.730;9.156;2024-01-30T12:25:56;15.10;1.00
8436;DHT22;4255;48.730;9.156;2024-01-30T12:28:22;15.00;1.00
8436;DHT22;4255;48.730;9.156;2024-01-30T12:30:48;15.00;1.00
8436;DHT22;4255;48.730;9.156;2024-01-30T12:33:17;15.10;1.00
8436;DHT22;4255;48.730;9.156;2024-01-30T12:35:47;15.00;1.00
8436;DHT22;4255;48.730;9.156;2024-01-30T12:38:15;15.00;1.00
8436;DHT22;4255;48.730;9.156;2024-01-30T12:40:41;15.10;1.00
8436;DHT22;4255;48.730;9.156;2024-01-30T12:43:06;15.20;1.00
8436;DHT22;4255;48.730;9.156;2024-01-30T12:45:32;15.20;1.00
8436;DHT22;4255;48.730;9.156;2024-01-30T12:47:58;15.50;1.00
8436;DHT22;4255;48.730;9.156;2024-01-30T12:50:23;15.40;1.00
8436;DHT22;4255;48.730;9.156;2024-01-30T12:52:49;15.40;1.00
8436;DHT22;4255;48.730;9.156;2024-01-30T12:55:15;15.40;1.00
8436;DHT22;4255;48.730;9.156;2024-01-30T12:57:40;15.50;1.00
8436;DHT22;4255;48.730;9.156;2024-01-30T13:00:07;15.50;1.00
8436;DHT22;4255;48.730;9.156;2024-01-30T13:02:36;15.50;1.00
8436;DHT22;4255;48.730;9.156;2024-01-30T13:05:05;15.50;1.00
8436;DHT22;4255;48.730;9.156;2024-01-30T13:07:31;15.60;1.00
8436;DHT22;4255;48.730;9.156;2024-01-30T13:09:57;15.40;1.00
8436;DHT22;4255;48.730;9.156;2024-01-30T13:12:28;15.30;1.00
8436;DHT22;4255;48.730;9.156;2024-01-30T13:14:54;15.20;1.00
8436;DHT22;4255;48.730;9.156;2024-01-30T13:17:19;15.30;1.00
8436;DHT22;4255;48.730;9.156;2024-01-30T13:19:45;15.40;1.00
8436;DHT22;4255;48.730;9.156;2024-01-30T13:22:11;15.50;1.00
8436;DHT22;4255;48.730;9.156;2024-01-30T13:24:36;15.70;1.00
8436;DHT22;4255;48.730;9.156;2024-01-30T13:27:02;15.60;1.00
8436;DHT22;4255;48.730;9.156;2024-01-30T13:29:31;15.60;1.00
8436;DHT22;4255;48.730;9.156;2024-01-30T13:31:56;15.50;1.00
8436;DHT22;4255;48.730;9.156;2024-01-30T13:34:22;15.30;1.00
8436;DHT22;4255;48.730;9.156;2024-01-30T13:36:48;15.40;1.00
8436;DHT22;4255;48.730;9.156;2024-01-30T13:39:14;15.30;1.00
8436;DHT22;4255;48.730;9.156;2024-01-30T13:41:41;15.40;1.00
8436;DHT22;4255;48.730;9.156;2024-01-30T13:44:07;15.50;1.00
8436;DHT22;4255;48.730;9.156;2024-01-30T13:46:34;15.50;1.00
8436;DHT22;4255;48.730;9.156;2024-01-30T13:49:00;15.90;1.00
8436;DHT22;4255;48.730;9.156;2024-01-30T13:51:25;15.80;1.00
8436;DHT22;4255;48.730;9.156;2024-01-30T13:53:51;15.70;1.00
8436;DHT22;4255;48.730;9.156;2024-01-30T13:56:17;15.70;1.00
8436;DHT22;4255;48.730;9.156;2024-01-30T13:58:42;15.80;1.00
8436;DHT22;4255;48.730;9.156;2024-01-30T14:01:08;15.80;1.00
8436;DHT22;4255;48.730;9.156;2024-01-30T14:03:35;15.80;1.00
8436;DHT22;4255;48.730;9.156;2024-01-30T14:06:01;15.80;1.00
8436;DHT22;4255;48.730;9.156;2024-01-30T14:08:26;15.70;1.00
8436;DHT22;4255;48.730;9.156;2024-01-30T14:10:54;15.80;1.00
8436;DHT22;4255;48.730;9.156;2024-01-30T14:13:21;15.90;1.00
8436;DHT22;4255;48.730;9.156;2024-01-30T14:15:48;15.80;1.00
8436;DHT22;4255;48.730;9.156;2024-01-30T14:18:14;15.60;1.00
8436;DHT22;4255;48.730;9.156;2024-01-30T14:20:40;15.60;1.00
8436;DHT22;4255;48.730;9.156;2024-01-30T14:23:06;15.50;1.00
8436;DHT22;4255;48.730;9.156;2024-01-30T14:25:32;15.40;1.00
8436;DHT22;4255;48.730;9.156;2024-01-30T14:27:58;15.30;1.00
8436;DHT22;4255;48.730;9.156;2024-01-30T14:30:23;15.30;1.00
8436;DHT22;4255;48.730;9.156;2024-01-30T14:32:49;15.10;1.00
8436;DHT22;4255;48.730;9.156;2024-01-30T14:35:15;14.90;1.00
8436;DHT22;4255;48.730;9.156;2024-01-30T14:37:41;14.70;1.00
8436;DHT22;4255;48.730;9.156;2024-01-30T14:40:07;14.80;1.00
8436;DHT22;4255;48.730;9.156;2024-01-30T14:42:33;14.90;1.00
8436;DHT22;4255;48.730;9.156;2024-01-30T14:44:58;15.10;1.00
8436;DHT22;4255;48.730;9.156;2024-01-30T14:47:24;15.20;1.00
8436;DHT22;4255;48.730;9.156;2024-01-30T14:49:51;15.20;1.00
8436;DHT22;4255;48.730;9.156;2024-01-30T14:52:17;15.00;1.00
8436;DHT22;4255;48.730;9.156;2024-01-30T14:54:43;15.00;1.00
8436;DHT22;4255;48.730;9.156;2024-01-30T14:57:09;15.00;1.00
8436;DHT22;4255;48.730;9.156;2024-01-30T14:59:35;14.90;1.00
8436;DHT22;4255;48.730;9.156;2024-01-30T15:02:00;14.80;1.00
8436;DHT22;4255;48.730;9.156;2024-01-30T15:04:26;14.90;1.00
8436;DHT22;4255;48.730;9.156;2024-01-30T15:06:52;14.90;1.00
8436;DHT22;4255;48.730;9.156;2024-01-30T15:09:18;14.70;1.00
8436;DHT22;4255;48.730;9.156;2024-01-30T15:11:46;14.70;1.00
8436;DHT22;4255;48.730;9.156;2024-01-30T15:14:12;14.50;1.00
8436;DHT22;4255;48.730;9.156;2024-01-30T15:16:38;14.60;1.00
8436;DHT22;4255;48.730;9.156;2024-01-30T15:19:04;14.70;1.00
8436;DHT22;4255;48.730;9.156;2024-01-30T15:21:30;14.70;1.00
8436;DHT22;4255;48.730;9.156;2024-01-30T15:23:56;14.50;1.00
8436;DHT22;4255;48.730;9.156;2024-01-30T15:26:22;14.30;1.00
8436;DHT22;4255;48.730;9.156;2024-01-30T15:28:47;13.90;1.00
8436;DHT22;4255;48.730;9.156;2024-01-30T15:31:13;13.70;1.00
8436;DHT22;4255;48.730;9.156;2024-01-30T15:33:38;13.70;1.00
8436;DHT22;4255;48.730;9.156;2024-01-30T15:36:04;13.80;1.00
8436;DHT22;4255;48.730;9.156;2024-01-30T15:38:30;13.90;1.00
8436;DHT22;4255;48.730;9.156;2024-01-30T15:40:56;13.70;1.00
8436;DHT22;4255;48.730;9.156;2024-01-30T15:43:22;13.50;1.00
8436;DHT22;4255;48.730;9.156;2024-01-30T15:45:48;13.40;14.70
8436;DHT22;4255;48.730;9.156;2024-01-30T15:48:14;13.20;38.60
8436;DHT22;4255;48.730;9.156;2024-01-30T15:50:39;13.10;68.20
8436;DHT22;4255;48.730;9.156;2024-01-30T15:53:05;13.00;99.20
8436;DHT22;4255;48.730;9.156;2024-01-30T15:55:31;12.80;99.90
8436;DHT22;4255;48.730;9.156;2024-01-30T15:57:56;12.80;99.90
8436;DHT22;4255;48.730;9.156;2024-01-30T16:00:22;12.50;99.90
8436;DHT22;4255;48.730;9.156;2024-01-30T16:02:48;12.60;99.90
8436;DHT22;4255;48.730;9.156;2024-01-30T16:05:13;12.60;99.90
8436;DHT22;4255;48.730;9.156;2024-01-30T16:07:39;12.60;99.90
8436;DHT22;4255;48.730;9.156;2024-01-30T16:10:05;12.60;99.90
8436;DHT22;4255;48.730;9.156;2024-01-30T16:12:35;12.60;99.90
8436;DHT22;4255;48.730;9.156;2024-01-30T16:15:01;12.60;99.90
8436;DHT22;4255;48.730;9.156;2024-01-30T16:17:27;12.60;99.90